sensor_id;sensor_type;location;lat;lon;timestamp;P1;durP1;ratioP1;P2;durP2;ratioP2
3967;SDS011;9221;42.646;23.380;2022-12-24T00:00:31;13.87;;;4.43;;
3967;SDS011;9221;42.646;23.380;2022-12-24T00:02:57;18.10;;;6.17;;
3967;SDS011;9221;42.646;23.380;2022-12-24T00:05:23;25.00;;;7.77;;
3967;SDS011;9221;42.646;23.380;2022-12-24T00:07:48;19.80;;;6.97;;
3967;SDS011;9221;42.646;23.380;2022-12-24T00:10:14;16.87;;;5.70;;
3967;SDS011;9221;42.646;23.380;2022-12-24T00:12:39;14.30;;;6.07;;
3967;SDS011;9221;42.646;23.380;2022-12-24T00:15:05;12.60;;;4.70;;
3967;SDS011;9221;42.646;23.380;2022-12-24T00:17:31;10.40;;;3.70;;
3967;SDS011;9221;42.646;23.380;2022-12-24T00:19:56;14.60;;;4.70;;
3967;SDS011;9221;42.646;23.380;2022-12-24T00:22:22;12.90;;;4.10;;
3967;SDS011;9221;42.646;23.380;2022-12-24T00:24:48;10.43;;;4.30;;
3967;SDS011;9221;42.646;23.380;2022-12-24T00:27:13;11.73;;;4.10;;
3967;SDS011;9221;42.646;23.380;2022-12-24T00:29:38;12.03;;;3.80;;
3967;SDS011;9221;42.646;23.380;2022-12-24T00:32:04;14.30;;;3.90;;
3967;SDS011;9221;42.646;23.380;2022-12-24T00:34:34;16.63;;;4.53;;
3967;SDS011;9221;42.646;23.380;2022-12-24T00:37:02;9.93;;;3.70;;
3967;SDS011;9221;42.646;23.380;2022-12-24T00:39:28;12.27;;;3.90;;
3967;SDS011;9221;42.646;23.380;2022-12-24T00:41:54;12.23;;;3.83;;
3967;SDS011;9221;42.646;23.380;2022-12-24T00:44:19;6.50;;;3.00;;
3967;SDS011;9221;42.646;23.380;2022-12-24T00:46:45;9.07;;;2.93;;
3967;SDS011;9221;42.646;23.380;2022-12-24T00:49:11;10.37;;;4.07;;
3967;SDS011;9221;42.646;23.380;2022-12-24T00:51:37;12.57;;;3.13;;
3967;SDS011;9221;42.646;23.380;2022-12-24T00:54:03;11.13;;;3.40;;
3967;SDS011;9221;42.646;23.380;2022-12-24T00:56:28;11.20;;;4.00;;
3967;SDS011;9221;42.646;23.380;2022-12-24T00:58:54;14.47;;;4.00;;
3967;SDS011;9221;42.646;23.380;2022-12-24T01:01:20;9.07;;;4.00;;
3967;SDS011;9221;42.646;23.380;2022-12-24T01:03:46;14.10;;;5.07;;
3967;SDS011;9221;42.646;23.380;2022-12-24T01:06:13;9.87;;;4.17;;
3967;SDS011;9221;42.646;23.380;2022-12-24T01:08:43;12.90;;;3.73;;
3967;SDS011;9221;42.646;23.380;2022-12-24T01:11:10;13.53;;;4.50;;
3967;SDS011;9221;42.646;23.380;2022-12-24T01:13:37;13.67;;;4.63;;
3967;SDS011;9221;42.646;23.380;2022-12-24T01:16:02;17.17;;;4.33;;
3967;SDS011;9221;42.646;23.380;2022-12-24T01:18:36;12.37;;;4.27;;
3967;SDS011;9221;42.646;23.380;2022-12-24T01:21:03;16.73;;;4.50;;
3967;SDS011;9221;42.646;23.380;2022-12-24T01:23:29;12.70;;;4.53;;
3967;SDS011;9221;42.646;23.380;2022-12-24T01:25:59;9.50;;;3.77;;
3967;SDS011;9221;42.646;23.380;2022-12-24T01:28:25;11.37;;;4.70;;
3967;SDS011;9221;42.646;23.380;2022-12-24T01:30:51;13.03;;;4.63;;
3967;SDS011;9221;42.646;23.380;2022-12-24T01:33:16;15.53;;;5.53;;
3967;SDS011;9221;42.646;23.380;2022-12-24T01:35:42;12.80;;;4.50;;
3967;SDS011;9221;42.646;23.380;2022-12-24T01:38:08;17.80;;;5.00;;
3967;SDS011;9221;42.646;23.380;2022-12-24T01:40:36;11.70;;;4.03;;
3967;SDS011;9221;42.646;23.380;2022-12-24T01:43:21;13.50;;;4.70;;
3967;SDS011;9221;42.646;23.380;2022-12-24T01:45:48;11.30;;;4.90;;
3967;SDS011;9221;42.646;23.380;2022-12-24T01:48:33;16.47;;;5.10;;
3967;SDS011;9221;42.646;23.380;2022-12-24T01:51:14;12.23;;;4.40;;
3967;SDS011;9221;42.646;23.380;2022-12-24T01:53:47;13.37;;;3.93;;
3967;SDS011;9221;42.646;23.380;2022-12-24T01:56:16;11.43;;;4.70;;
3967;SDS011;9221;42.646;23.380;2022-12-24T01:58:45;17.50;;;5.03;;
3967;SDS011;9221;42.646;23.380;2022-12-24T02:01:14;18.03;;;5.70;;
3967;SDS011;9221;42.646;23.380;2022-12-24T02:03:39;22.10;;;4.80;;
3967;SDS011;9221;42.646;23.380;2022-12-24T02:06:05;13.37;;;4.97;;
3967;SDS011;9221;42.646;23.380;2022-12-24T02:08:32;13.90;;;5.33;;
3967;SDS011;9221;42.646;23.380;2022-12-24T02:11:11;8.00;;;3.90;;
3967;SDS011;9221;42.646;23.380;2022-12-24T02:13:39;11.03;;;3.73;;
3967;SDS011;9221;42.646;23.380;2022-12-24T02:16:09;14.97;;;4.17;;
3967;SDS011;9221;42.646;23.380;2022-12-24T02:18:42;18.83;;;5.23;;
3967;SDS011;9221;42.646;23.380;2022-12-24T02:21:32;18.87;;;5.77;;
3967;SDS011;9221;42.646;23.380;2022-12-24T02:30:01;14.70;;;5.20;;
3967;SDS011;9221;42.646;23.380;2022-12-24T02:32:44;16.43;;;5.13;;
3967;SDS011;9221;42.646;23.380;2022-12-24T02:38:19;23.00;;;6.40;;
3967;SDS011;9221;42.646;23.380;2022-12-24T02:41:36;14.40;;;5.90;;
3967;SDS011;9221;42.646;23.380;2022-12-24T02:43:43;16.67;;;5.77;;
3967;SDS011;9221;42.646;23.380;2022-12-24T02:46:11;24.73;;;6.13;;
3967;SDS011;9221;42.646;23.380;2022-12-24T02:48:40;21.33;;;6.40;;
3967;SDS011;9221;42.646;23.380;2022-12-24T02:51:09;19.20;;;6.63;;
3967;SDS011;9221;42.646;23.380;2022-12-24T02:53:35;15.40;;;6.03;;
3967;SDS011;9221;42.646;23.380;2022-12-24T03:06:42;20.77;;;7.30;;
3967;SDS011;9221;42.646;23.380;2022-12-24T03:09:24;28.63;;;7.80;;
3967;SDS011;9221;42.646;23.380;2022-12-24T03:12:12;26.23;;;7.93;;
3967;SDS011;9221;42.646;23.380;2022-12-24T03:14:52;28.07;;;8.47;;
3967;SDS011;9221;42.646;23.380;2022-12-24T03:17:18;17.93;;;7.17;;
3967;SDS011;9221;42.646;23.380;2022-12-24T03:19:45;28.03;;;8.60;;
3967;SDS011;9221;42.646;23.380;2022-12-24T03:22:11;38.87;;;8.67;;
3967;SDS011;9221;42.646;23.380;2022-12-24T03:24:39;21.70;;;7.13;;
3967;SDS011;9221;42.646;23.380;2022-12-24T03:27:07;20.83;;;7.90;;
3967;SDS011;9221;42.646;23.380;2022-12-24T03:29:35;32.30;;;8.00;;
3967;SDS011;9221;42.646;23.380;2022-12-24T03:32:03;30.63;;;8.27;;
3967;SDS011;9221;42.646;23.380;2022-12-24T03:34:29;23.37;;;8.07;;
3967;SDS011;9221;42.646;23.380;2022-12-24T03:36:54;28.80;;;7.10;;
3967;SDS011;9221;42.646;23.380;2022-12-24T03:39:21;20.90;;;7.57;;
3967;SDS011;9221;42.646;23.380;2022-12-24T03:41:47;22.80;;;6.83;;
3967;SDS011;9221;42.646;23.380;2022-12-24T03:44:12;24.67;;;8.00;;
3967;SDS011;9221;42.646;23.380;2022-12-24T03:46:38;23.63;;;7.50;;
3967;SDS011;9221;42.646;23.380;2022-12-24T03:49:03;31.43;;;8.17;;
3967;SDS011;9221;42.646;23.380;2022-12-24T03:51:29;15.17;;;5.33;;
3967;SDS011;9221;42.646;23.380;2022-12-24T03:53:54;16.40;;;4.47;;
3967;SDS011;9221;42.646;23.380;2022-12-24T03:56:21;16.00;;;5.03;;
3967;SDS011;9221;42.646;23.380;2022-12-24T03:58:46;11.67;;;4.43;;
3967;SDS011;9221;42.646;23.380;2022-12-24T04:01:12;12.20;;;4.40;;
3967;SDS011;9221;42.646;23.380;2022-12-24T04:03:38;11.10;;;3.80;;
3967;SDS011;9221;42.646;23.380;2022-12-24T04:06:05;11.07;;;3.93;;
3967;SDS011;9221;42.646;23.380;2022-12-24T04:08:32;24.33;;;4.63;;
3967;SDS011;9221;42.646;23.380;2022-12-24T04:10:58;11.57;;;3.57;;
3967;SDS011;9221;42.646;23.380;2022-12-24T04:13:23;8.10;;;3.57;;
3967;SDS011;9221;42.646;23.380;2022-12-24T04:15:56;14.53;;;3.97;;
3967;SDS011;9221;42.646;23.380;2022-12-24T04:18:25;8.07;;;3.17;;
3967;SDS011;9221;42.646;23.380;2022-12-24T04:20:51;8.07;;;3.30;;
3967;SDS011;9221;42.646;23.380;2022-12-24T04:23:17;7.73;;;2.90;;
3967;SDS011;9221;42.646;23.380;2022-12-24T04:25:43;7.70;;;2.87;;
3967;SDS011;9221;42.646;23.380;2022-12-24T04:28:08;11.60;;;3.77;;
3967;SDS011;9221;42.646;23.380;2022-12-24T04:30:33;15.77;;;4.77;;
3967;SDS011;9221;42.646;23.380;2022-12-24T04:32:59;15.70;;;5.63;;
3967;SDS011;9221;42.646;23.380;2022-12-24T04:35:24;14.80;;;4.73;;
3967;SDS011;9221;42.646;23.380;2022-12-24T04:37:49;15.93;;;5.00;;
3967;SDS011;9221;42.646;23.380;2022-12-24T04:40:15;11.53;;;4.53;;
3967;SDS011;9221;42.646;23.380;2022-12-24T04:42:40;13.83;;;4.30;;
3967;SDS011;9221;42.646;23.380;2022-12-24T04:45:06;16.23;;;5.20;;
3967;SDS011;9221;42.646;23.380;2022-12-24T04:47:32;17.90;;;6.67;;
3967;SDS011;9221;42.646;23.380;2022-12-24T04:49:57;28.87;;;6.17;;
3967;SDS011;9221;42.646;23.380;2022-12-24T04:52:25;10.60;;;4.67;;
3967;SDS011;9221;42.646;23.380;2022-12-24T04:54:51;13.00;;;4.30;;
3967;SDS011;9221;42.646;23.380;2022-12-24T04:57:16;15.07;;;4.30;;
3967;SDS011;9221;42.646;23.380;2022-12-24T04:59:42;22.00;;;6.33;;
3967;SDS011;9221;42.646;23.380;2022-12-24T05:02:07;15.63;;;6.00;;
3967;SDS011;9221;42.646;23.380;2022-12-24T05:04:33;21.87;;;5.80;;
3967;SDS011;9221;42.646;23.380;2022-12-24T05:06:58;20.83;;;7.17;;
3967;SDS011;9221;42.646;23.380;2022-12-24T05:09:23;24.73;;;7.73;;
3967;SDS011;9221;42.646;23.380;2022-12-24T05:11:49;15.50;;;6.43;;
3967;SDS011;9221;42.646;23.380;2022-12-24T05:14:14;21.53;;;6.83;;
3967;SDS011;9221;42.646;23.380;2022-12-24T05:16:40;19.73;;;6.40;;
3967;SDS011;9221;42.646;23.380;2022-12-24T05:19:05;23.90;;;6.67;;
3967;SDS011;9221;42.646;23.380;2022-12-24T05:21:30;20.47;;;5.90;;
3967;SDS011;9221;42.646;23.380;2022-12-24T05:23:56;16.73;;;6.00;;
3967;SDS011;9221;42.646;23.380;2022-12-24T05:26:41;19.20;;;5.90;;
3967;SDS011;9221;42.646;23.380;2022-12-24T05:29:15;13.20;;;4.40;;
3967;SDS011;9221;42.646;23.380;2022-12-24T05:31:41;12.83;;;4.80;;
3967;SDS011;9221;42.646;23.380;2022-12-24T05:34:07;13.53;;;4.23;;
3967;SDS011;9221;42.646;23.380;2022-12-24T05:36:33;13.50;;;4.03;;
3967;SDS011;9221;42.646;23.380;2022-12-24T05:38:59;13.70;;;4.57;;
3967;SDS011;9221;42.646;23.380;2022-12-24T05:41:25;13.50;;;4.63;;
3967;SDS011;9221;42.646;23.380;2022-12-24T05:43:51;10.20;;;3.80;;
3967;SDS011;9221;42.646;23.380;2022-12-24T05:46:17;9.40;;;3.17;;
3967;SDS011;9221;42.646;23.380;2022-12-24T05:48:44;10.43;;;3.47;;
3967;SDS011;9221;42.646;23.380;2022-12-24T05:51:11;14.80;;;4.47;;
3967;SDS011;9221;42.646;23.380;2022-12-24T05:53:38;12.70;;;3.70;;
3967;SDS011;9221;42.646;23.380;2022-12-24T05:56:05;13.27;;;5.23;;
3967;SDS011;9221;42.646;23.380;2022-12-24T05:58:32;11.47;;;3.80;;
3967;SDS011;9221;42.646;23.380;2022-12-24T06:00:57;9.50;;;3.53;;
3967;SDS011;9221;42.646;23.380;2022-12-24T06:03:23;14.13;;;5.30;;
3967;SDS011;9221;42.646;23.380;2022-12-24T06:05:56;11.10;;;3.50;;
3967;SDS011;9221;42.646;23.380;2022-12-24T06:08:22;10.47;;;3.97;;
3967;SDS011;9221;42.646;23.380;2022-12-24T06:10:52;8.57;;;3.37;;
3967;SDS011;9221;42.646;23.380;2022-12-24T06:13:22;6.40;;;3.20;;
3967;SDS011;9221;42.646;23.380;2022-12-24T06:15:48;18.03;;;4.00;;
3967;SDS011;9221;42.646;23.380;2022-12-24T06:18:13;13.23;;;4.03;;
3967;SDS011;9221;42.646;23.380;2022-12-24T06:20:38;8.83;;;3.03;;
3967;SDS011;9221;42.646;23.380;2022-12-24T06:23:04;14.70;;;4.87;;
3967;SDS011;9221;42.646;23.380;2022-12-24T06:25:29;23.70;;;6.00;;
3967;SDS011;9221;42.646;23.380;2022-12-24T06:27:54;15.37;;;5.40;;
3967;SDS011;9221;42.646;23.380;2022-12-24T06:30:20;13.80;;;4.87;;
3967;SDS011;9221;42.646;23.380;2022-12-24T06:32:45;12.13;;;4.47;;
3967;SDS011;9221;42.646;23.380;2022-12-24T06:35:11;12.43;;;3.87;;
3967;SDS011;9221;42.646;23.380;2022-12-24T06:37:36;10.93;;;4.07;;
3967;SDS011;9221;42.646;23.380;2022-12-24T06:40:01;15.60;;;4.37;;
3967;SDS011;9221;42.646;23.380;2022-12-24T06:42:27;12.13;;;4.10;;
3967;SDS011;9221;42.646;23.380;2022-12-24T06:44:53;13.13;;;4.80;;
3967;SDS011;9221;42.646;23.380;2022-12-24T06:47:18;13.40;;;4.87;;
3967;SDS011;9221;42.646;23.380;2022-12-24T06:49:43;13.13;;;4.73;;
3967;SDS011;9221;42.646;23.380;2022-12-24T06:52:09;10.50;;;4.40;;
3967;SDS011;9221;42.646;23.380;2022-12-24T06:54:34;12.07;;;4.70;;
3967;SDS011;9221;42.646;23.380;2022-12-24T06:57:00;12.87;;;5.03;;
3967;SDS011;9221;42.646;23.380;2022-12-24T06:59:25;22.00;;;8.17;;
3967;SDS011;9221;42.646;23.380;2022-12-24T07:01:50;22.33;;;6.43;;
3967;SDS011;9221;42.646;23.380;2022-12-24T07:04:16;23.93;;;7.50;;
3967;SDS011;9221;42.646;23.380;2022-12-24T07:06:41;21.63;;;5.97;;
3967;SDS011;9221;42.646;23.380;2022-12-24T07:09:08;18.70;;;7.17;;
3967;SDS011;9221;42.646;23.380;2022-12-24T07:11:37;17.10;;;6.77;;
3967;SDS011;9221;42.646;23.380;2022-12-24T07:14:02;20.17;;;6.13;;
3967;SDS011;9221;42.646;23.380;2022-12-24T07:16:28;17.77;;;7.57;;
3967;SDS011;9221;42.646;23.380;2022-12-24T07:18:53;17.93;;;6.97;;
3967;SDS011;9221;42.646;23.380;2022-12-24T07:21:18;16.47;;;6.20;;
3967;SDS011;9221;42.646;23.380;2022-12-24T07:23:44;21.07;;;7.40;;
3967;SDS011;9221;42.646;23.380;2022-12-24T07:26:09;20.70;;;6.50;;
3967;SDS011;9221;42.646;23.380;2022-12-24T07:28:35;25.87;;;8.03;;
3967;SDS011;9221;42.646;23.380;2022-12-24T07:31:00;29.03;;;8.03;;
3967;SDS011;9221;42.646;23.380;2022-12-24T07:33:26;24.00;;;9.10;;
3967;SDS011;9221;42.646;23.380;2022-12-24T07:35:58;20.83;;;7.93;;
3967;SDS011;9221;42.646;23.380;2022-12-24T07:38:28;27.27;;;8.53;;
3967;SDS011;9221;42.646;23.380;2022-12-24T07:40:54;24.30;;;8.10;;
3967;SDS011;9221;42.646;23.380;2022-12-24T07:43:20;25.10;;;7.67;;
3967;SDS011;9221;42.646;23.380;2022-12-24T07:45:46;25.07;;;8.10;;
3967;SDS011;9221;42.646;23.380;2022-12-24T07:48:11;21.50;;;8.57;;
3967;SDS011;9221;42.646;23.380;2022-12-24T07:50:37;21.80;;;8.57;;
3967;SDS011;9221;42.646;23.380;2022-12-24T07:53:02;23.43;;;7.77;;
3967;SDS011;9221;42.646;23.380;2022-12-24T07:55:28;18.60;;;6.37;;
3967;SDS011;9221;42.646;23.380;2022-12-24T07:57:53;17.67;;;6.33;;
3967;SDS011;9221;42.646;23.380;2022-12-24T08:00:19;21.80;;;7.33;;
3967;SDS011;9221;42.646;23.380;2022-12-24T08:02:44;14.93;;;5.90;;
3967;SDS011;9221;42.646;23.380;2022-12-24T08:05:10;24.07;;;7.20;;
3967;SDS011;9221;42.646;23.380;2022-12-24T08:07:35;17.53;;;7.20;;
3967;SDS011;9221;42.646;23.380;2022-12-24T08:10:00;17.43;;;6.70;;
3967;SDS011;9221;42.646;23.380;2022-12-24T08:12:26;21.77;;;6.93;;
3967;SDS011;9221;42.646;23.380;2022-12-24T08:14:51;24.40;;;7.90;;
3967;SDS011;9221;42.646;23.380;2022-12-24T08:17:17;19.17;;;7.20;;
3967;SDS011;9221;42.646;23.380;2022-12-24T08:19:42;17.10;;;7.20;;
3967;SDS011;9221;42.646;23.380;2022-12-24T08:22:07;17.23;;;6.73;;
3967;SDS011;9221;42.646;23.380;2022-12-24T08:24:33;26.70;;;8.00;;
3967;SDS011;9221;42.646;23.380;2022-12-24T08:26:58;24.30;;;8.13;;
3967;SDS011;9221;42.646;23.380;2022-12-24T08:29:23;22.80;;;8.07;;
3967;SDS011;9221;42.646;23.380;2022-12-24T08:31:49;23.30;;;8.03;;
3967;SDS011;9221;42.646;23.380;2022-12-24T08:34:14;19.87;;;8.13;;
3967;SDS011;9221;42.646;23.380;2022-12-24T08:36:40;24.83;;;8.37;;
3967;SDS011;9221;42.646;23.380;2022-12-24T08:39:05;17.57;;;7.03;;
3967;SDS011;9221;42.646;23.380;2022-12-24T08:41:33;24.90;;;8.73;;
3967;SDS011;9221;42.646;23.380;2022-12-24T08:43:59;31.50;;;11.77;;
3967;SDS011;9221;42.646;23.380;2022-12-24T08:46:24;30.70;;;11.30;;
3967;SDS011;9221;42.646;23.380;2022-12-24T08:48:50;33.43;;;11.17;;
3967;SDS011;9221;42.646;23.380;2022-12-24T08:51:15;30.33;;;10.90;;
3967;SDS011;9221;42.646;23.380;2022-12-24T08:53:43;31.67;;;11.63;;
3967;SDS011;9221;42.646;23.380;2022-12-24T08:56:09;32.23;;;12.90;;
3967;SDS011;9221;42.646;23.380;2022-12-24T08:58:36;47.05;;;19.90;;
3967;SDS011;9221;42.646;23.380;2022-12-24T09:01:08;41.83;;;15.80;;
3967;SDS011;9221;42.646;23.380;2022-12-24T09:03:35;56.87;;;17.40;;
3967;SDS011;9221;42.646;23.380;2022-12-24T09:06:04;41.93;;;14.47;;
3967;SDS011;9221;42.646;23.380;2022-12-24T09:08:31;39.10;;;15.70;;
3967;SDS011;9221;42.646;23.380;2022-12-24T09:11:10;33.97;;;13.63;;
3967;SDS011;9221;42.646;23.380;2022-12-24T09:13:38;43.33;;;14.03;;
3967;SDS011;9221;42.646;23.380;2022-12-24T09:16:05;46.87;;;14.33;;
3967;SDS011;9221;42.646;23.380;2022-12-24T09:18:31;40.60;;;15.80;;
3967;SDS011;9221;42.646;23.380;2022-12-24T09:21:00;49.17;;;13.33;;
3967;SDS011;9221;42.646;23.380;2022-12-24T09:23:26;34.80;;;12.83;;
3967;SDS011;9221;42.646;23.380;2022-12-24T09:25:52;49.70;;;14.00;;
3967;SDS011;9221;42.646;23.380;2022-12-24T09:28:18;37.87;;;13.90;;
3967;SDS011;9221;42.646;23.380;2022-12-24T09:30:43;37.07;;;13.57;;
3967;SDS011;9221;42.646;23.380;2022-12-24T09:33:09;46.70;;;13.50;;
3967;SDS011;9221;42.646;23.380;2022-12-24T09:35:36;55.70;;;14.53;;
3967;SDS011;9221;42.646;23.380;2022-12-24T09:38:02;48.43;;;15.70;;
3967;SDS011;9221;42.646;23.380;2022-12-24T09:40:38;53.10;;;17.20;;
3967;SDS011;9221;42.646;23.380;2022-12-24T09:43:12;49.70;;;16.73;;
3967;SDS011;9221;42.646;23.380;2022-12-24T09:45:43;62.33;;;17.73;;
3967;SDS011;9221;42.646;23.380;2022-12-24T09:48:17;46.57;;;15.57;;
3967;SDS011;9221;42.646;23.380;2022-12-24T09:55:49;45.53;;;15.70;;
3967;SDS011;9221;42.646;23.380;2022-12-24T09:58:26;54.23;;;15.60;;
3967;SDS011;9221;42.646;23.380;2022-12-24T10:01:04;52.60;;;17.38;;
3967;SDS011;9221;42.646;23.380;2022-12-24T10:03:30;64.07;;;18.77;;
3967;SDS011;9221;42.646;23.380;2022-12-24T10:16:41;59.73;;;19.60;;
3967;SDS011;9221;42.646;23.380;2022-12-24T10:22:17;61.67;;;19.63;;
3967;SDS011;9221;42.646;23.380;2022-12-24T10:24:56;66.07;;;18.70;;
3967;SDS011;9221;42.646;23.380;2022-12-24T10:27:31;64.33;;;21.20;;
3967;SDS011;9221;42.646;23.380;2022-12-24T10:30:05;52.90;;;18.87;;
3967;SDS011;9221;42.646;23.380;2022-12-24T10:32:41;59.60;;;18.93;;
3967;SDS011;9221;42.646;23.380;2022-12-24T10:35:15;58.60;;;20.63;;
3967;SDS011;9221;42.646;23.380;2022-12-24T10:37:43;64.53;;;20.13;;
3967;SDS011;9221;42.646;23.380;2022-12-24T10:43:18;64.43;;;19.17;;
3967;SDS011;9221;42.646;23.380;2022-12-24T10:45:46;60.17;;;18.53;;
3967;SDS011;9221;42.646;23.380;2022-12-24T10:51:03;59.13;;;20.60;;
3967;SDS011;9221;42.646;23.380;2022-12-24T10:53:59;65.83;;;20.13;;
3967;SDS011;9221;42.646;23.380;2022-12-24T10:56:25;60.40;;;20.27;;
3967;SDS011;9221;42.646;23.380;2022-12-24T10:58:52;65.50;;;20.17;;
3967;SDS011;9221;42.646;23.380;2022-12-24T11:01:20;62.57;;;19.30;;
3967;SDS011;9221;42.646;23.380;2022-12-24T11:04:05;56.37;;;18.70;;
3967;SDS011;9221;42.646;23.380;2022-12-24T11:06:31;59.90;;;18.50;;
3967;SDS011;9221;42.646;23.380;2022-12-24T11:08:57;68.63;;;19.80;;
3967;SDS011;9221;42.646;23.380;2022-12-24T11:11:44;64.50;;;20.30;;
3967;SDS011;9221;42.646;23.380;2022-12-24T11:14:11;70.63;;;19.90;;
3967;SDS011;9221;42.646;23.380;2022-12-24T11:16:45;82.77;;;19.73;;
3967;SDS011;9221;42.646;23.380;2022-12-24T11:19:17;58.53;;;18.57;;
3967;SDS011;9221;42.646;23.380;2022-12-24T11:21:46;57.10;;;18.63;;
3967;SDS011;9221;42.646;23.380;2022-12-24T11:26:38;61.77;;;20.33;;
3967;SDS011;9221;42.646;23.380;2022-12-24T11:31:36;66.77;;;19.37;;
3967;SDS011;9221;42.646;23.380;2022-12-24T11:34:16;62.53;;;20.77;;
3967;SDS011;9221;42.646;23.380;2022-12-24T11:36:41;53.93;;;19.63;;
3967;SDS011;9221;42.646;23.380;2022-12-24T11:39:09;61.47;;;21.63;;
3967;SDS011;9221;42.646;23.380;2022-12-24T11:41:46;56.70;;;20.40;;
3967;SDS011;9221;42.646;23.380;2022-12-24T11:44:13;70.87;;;20.27;;
3967;SDS011;9221;42.646;23.380;2022-12-24T11:46:40;61.80;;;20.37;;
3967;SDS011;9221;42.646;23.380;2022-12-24T11:51:35;62.87;;;20.17;;
3967;SDS011;9221;42.646;23.380;2022-12-24T11:56:58;72.10;;;21.50;;
3967;SDS011;9221;42.646;23.380;2022-12-24T11:59:33;70.63;;;20.92;;
3967;SDS011;9221;42.646;23.380;2022-12-24T12:04:58;59.00;;;19.20;;
3967;SDS011;9221;42.646;23.380;2022-12-24T12:07:34;72.20;;;18.43;;
3967;SDS011;9221;42.646;23.380;2022-12-24T12:10:03;57.17;;;19.40;;
3967;SDS011;9221;42.646;23.380;2022-12-24T12:12:44;52.17;;;18.53;;
3967;SDS011;9221;42.646;23.380;2022-12-24T12:15:22;56.73;;;17.13;;
3967;SDS011;9221;42.646;23.380;2022-12-24T12:17:54;45.30;;;16.70;;
3967;SDS011;9221;42.646;23.380;2022-12-24T12:20:24;64.00;;;17.90;;
3967;SDS011;9221;42.646;23.380;2022-12-24T12:25:46;52.23;;;18.37;;
3967;SDS011;9221;42.646;23.380;2022-12-24T12:33:42;52.67;;;19.77;;
3967;SDS011;9221;42.646;23.380;2022-12-24T12:36:13;55.43;;;17.97;;
3967;SDS011;9221;42.646;23.380;2022-12-24T12:38:44;58.60;;;19.00;;
3967;SDS011;9221;42.646;23.380;2022-12-24T12:44:10;53.57;;;19.13;;
3967;SDS011;9221;42.646;23.380;2022-12-24T12:49:18;55.07;;;19.13;;
3967;SDS011;9221;42.646;23.380;2022-12-24T12:54:51;48.93;;;17.67;;
3967;SDS011;9221;42.646;23.380;2022-12-24T12:57:19;43.57;;;17.30;;
3967;SDS011;9221;42.646;23.380;2022-12-24T12:59:50;45.53;;;17.67;;
3967;SDS011;9221;42.646;23.380;2022-12-24T13:05:39;48.63;;;15.80;;
3967;SDS011;9221;42.646;23.380;2022-12-24T13:16:56;55.53;;;18.73;;
3967;SDS011;9221;42.646;23.380;2022-12-24T13:22:29;50.60;;;18.50;;
3967;SDS011;9221;42.646;23.380;2022-12-24T13:24:54;51.37;;;18.73;;
3967;SDS011;9221;42.646;23.380;2022-12-24T13:27:24;52.03;;;18.40;;
3967;SDS011;9221;42.646;23.380;2022-12-24T13:29:58;54.93;;;18.03;;
3967;SDS011;9221;42.646;23.380;2022-12-24T13:34:52;54.67;;;19.97;;
3967;SDS011;9221;42.646;23.380;2022-12-24T13:50:46;61.03;;;19.87;;
3967;SDS011;9221;42.646;23.380;2022-12-24T13:55:53;51.70;;;18.93;;
3967;SDS011;9221;42.646;23.380;2022-12-24T13:58:20;52.13;;;19.13;;
3967;SDS011;9221;42.646;23.380;2022-12-24T14:05:52;62.90;;;18.90;;
3967;SDS011;9221;42.646;23.380;2022-12-24T14:16:02;58.93;;;18.40;;
3967;SDS011;9221;42.646;23.380;2022-12-24T14:18:29;50.90;;;18.27;;
3967;SDS011;9221;42.646;23.380;2022-12-24T14:20:58;50.43;;;17.73;;
3967;SDS011;9221;42.646;23.380;2022-12-24T14:25:50;52.77;;;20.90;;
3967;SDS011;9221;42.646;23.380;2022-12-24T14:28:16;81.67;;;24.37;;
3967;SDS011;9221;42.646;23.380;2022-12-24T14:30:57;67.07;;;22.83;;
3967;SDS011;9221;42.646;23.380;2022-12-24T14:33:29;80.73;;;22.80;;
3967;SDS011;9221;42.646;23.380;2022-12-24T14:35:54;71.00;;;24.33;;
3967;SDS011;9221;42.646;23.380;2022-12-24T14:38:20;67.87;;;23.33;;
3967;SDS011;9221;42.646;23.380;2022-12-24T14:46:23;58.63;;;21.60;;
3967;SDS011;9221;42.646;23.380;2022-12-24T14:54:46;69.43;;;23.47;;
3967;SDS011;9221;42.646;23.380;2022-12-24T14:57:19;70.23;;;23.70;;
3967;SDS011;9221;42.646;23.380;2022-12-24T15:02:36;70.20;;;23.57;;
3967;SDS011;9221;42.646;23.380;2022-12-24T15:05:16;62.27;;;21.70;;
3967;SDS011;9221;42.646;23.380;2022-12-24T15:07:49;60.23;;;20.50;;
3967;SDS011;9221;42.646;23.380;2022-12-24T15:10:26;52.40;;;18.73;;
3967;SDS011;9221;42.646;23.380;2022-12-24T15:12:55;62.23;;;19.23;;
3967;SDS011;9221;42.646;23.380;2022-12-24T15:15:22;52.80;;;18.70;;
3967;SDS011;9221;42.646;23.380;2022-12-24T15:17:48;61.83;;;16.97;;
3967;SDS011;9221;42.646;23.380;2022-12-24T15:20:15;37.57;;;15.87;;
3967;SDS011;9221;42.646;23.380;2022-12-24T15:22:44;38.07;;;14.03;;
3967;SDS011;9221;42.646;23.380;2022-12-24T15:25:21;33.47;;;11.00;;
3967;SDS011;9221;42.646;23.380;2022-12-24T15:27:48;35.17;;;11.50;;
3967;SDS011;9221;42.646;23.380;2022-12-24T15:30:15;27.23;;;8.93;;
3967;SDS011;9221;42.646;23.380;2022-12-24T15:32:44;27.63;;;9.47;;
3967;SDS011;9221;42.646;23.380;2022-12-24T15:40:46;21.17;;;7.87;;
3967;SDS011;9221;42.646;23.380;2022-12-24T15:43:13;26.90;;;8.27;;
3967;SDS011;9221;42.646;23.380;2022-12-24T15:45:39;23.67;;;8.03;;
3967;SDS011;9221;42.646;23.380;2022-12-24T15:48:09;14.53;;;6.73;;
3967;SDS011;9221;42.646;23.380;2022-12-24T15:53:10;18.67;;;6.83;;
3967;SDS011;9221;42.646;23.380;2022-12-24T15:55:45;19.83;;;6.80;;
3967;SDS011;9221;42.646;23.380;2022-12-24T15:58:24;17.73;;;7.03;;
3967;SDS011;9221;42.646;23.380;2022-12-24T16:06:14;15.77;;;6.87;;
3967;SDS011;9221;42.646;23.380;2022-12-24T16:08:40;20.43;;;7.03;;
3967;SDS011;9221;42.646;23.380;2022-12-24T16:14:21;23.47;;;8.20;;
3967;SDS011;9221;42.646;23.380;2022-12-24T16:16:33;19.23;;;7.67;;
3967;SDS011;9221;42.646;23.380;2022-12-24T16:19:03;21.67;;;8.40;;
3967;SDS011;9221;42.646;23.380;2022-12-24T16:21:40;22.60;;;7.80;;
3967;SDS011;9221;42.646;23.380;2022-12-24T16:24:12;21.53;;;7.80;;
3967;SDS011;9221;42.646;23.380;2022-12-24T16:26:41;23.17;;;8.67;;
3967;SDS011;9221;42.646;23.380;2022-12-24T16:29:06;32.57;;;11.77;;
3967;SDS011;9221;42.646;23.380;2022-12-24T16:31:38;42.73;;;14.37;;
3967;SDS011;9221;42.646;23.380;2022-12-24T16:34:13;40.87;;;15.37;;
3967;SDS011;9221;42.646;23.380;2022-12-24T16:36:39;40.40;;;15.03;;
3967;SDS011;9221;42.646;23.380;2022-12-24T16:39:09;52.80;;;16.43;;
3967;SDS011;9221;42.646;23.380;2022-12-24T16:41:48;51.63;;;17.97;;
3967;SDS011;9221;42.646;23.380;2022-12-24T16:44:32;47.70;;;17.43;;
3967;SDS011;9221;42.646;23.380;2022-12-24T16:46:58;54.97;;;19.97;;
3967;SDS011;9221;42.646;23.380;2022-12-24T16:49:24;46.27;;;18.07;;
3967;SDS011;9221;42.646;23.380;2022-12-24T16:51:50;67.03;;;20.90;;
3967;SDS011;9221;42.646;23.380;2022-12-24T16:54:16;53.73;;;19.40;;
3967;SDS011;9221;42.646;23.380;2022-12-24T16:56:42;59.90;;;20.13;;
3967;SDS011;9221;42.646;23.380;2022-12-24T16:59:18;59.63;;;20.20;;
3967;SDS011;9221;42.646;23.380;2022-12-24T17:01:46;66.17;;;21.20;;
3967;SDS011;9221;42.646;23.380;2022-12-24T17:04:13;66.53;;;21.27;;
3967;SDS011;9221;42.646;23.380;2022-12-24T17:06:39;60.33;;;22.03;;
3967;SDS011;9221;42.646;23.380;2022-12-24T17:09:05;82.00;;;25.07;;
3967;SDS011;9221;42.646;23.380;2022-12-24T17:11:30;66.20;;;23.33;;
3967;SDS011;9221;42.646;23.380;2022-12-24T17:13:56;77.57;;;23.60;;
3967;SDS011;9221;42.646;23.380;2022-12-24T17:16:21;70.73;;;23.43;;
3967;SDS011;9221;42.646;23.380;2022-12-24T17:18:47;67.30;;;23.30;;
3967;SDS011;9221;42.646;23.380;2022-12-24T17:21:14;61.23;;;23.17;;
3967;SDS011;9221;42.646;23.380;2022-12-24T17:23:41;65.10;;;23.80;;